João Paulo II Airport

Airport
ICAO code: 
LPPD
IATA Code: 
PDL
Summary
ICAO Region: 
EUR
Territory: 
Location: 
Relva, Região Autónoma dos Açores
Serving: 
Ponta Delgada
Elevation: 
259 ft
Coordinates: 
Aerial View: 
37° 44' 57.88" N, 25° 42' 36.074" W
Metar
Observation
LPPD 270530Z 04005KT 9999 FEW020 13/08 Q1032
Station
Ponta Delgada / Nordela Acores
Date/Time
2021-11-27 05:30:00
Wind direction
40°
Wind speed
05 kts
Lowest cloud amount
few clouds
Temperature
13°C
Dew point
8°C
Humidity
71%
QNH
1032 hPa
Weather condition
n/a

João Paulo II Airport, named after Pope John Paul II, is an international airport located on the island of São Miguel, in the Portuguese archipelago of the Azores.

Climatology

Humid “subtropical” climate (Köppen climate classification Cfa)

Runways

Designator Length Width Surface Rops
12/30 2497 45 ASP No/No
Airport map: 
Aerial View: 

Accidents and Serious Incidents at or in the vicinity of LPPD

SKYbrary Partners:

Safety knowledge contributed by: